Sweet Home, Texas
Current Conditions -  °F | °C
As of 12:15 PM on Friday 28 Nov 2014 (Local Time) from KT20 Reporting Station
Broken Clouds Broken Clouds  
Wind Chill: 23°   Ceiling: 4000
Heat Index: 23°   Visibility: 10mi
Dew Point: 12°   Wind: 17mph
Humidity: 52%   Direction: 210°SSW
Pressure: 30.23"   Gusts: 23mph
Location:  29.35°N, 97.07°W
Report Text: KT20 281815Z AUTO 21015G20KT 10SM SCT034 BKN040 23/12 A3023 RMK AO2 T02260122
Loading
Personal Weather Stations






























Interactive Weather Map New forecast layout! Learn more

10-Day Weather Forecast

Advertisements
Track Severe Weather on mobile